• Join FlightAware (Why Join?)
  • Login
  • US Flag 
05:00AM EDT


 

Airport Tracker/Info


-or-


 

Live Flight TrackerFlight Track Log ✈ N200UW ✈ 08-Nov-2013 ✈ KWRL - KLAR

Flight Track Log - Related Links

Times and Time Zones

All times are in EST time to prevent confusion due to time zone crossing. See the N200UW flight status page for this flight to view local times or setup timezone preferences in your user account.

Time Position Orientation Groundspeed Altitude Reporting Facility
EST Latitude Longitude Course Direction KTS MPH feet Rate Location/Type
02:13PM 43.8361 -107.8356 142° Southeast 162 186 11,900  Level Salt Lake Center
02:14PM 43.7894 -107.7956 148° Southeast 179 206 14,100 2,160 Climbing Salt Lake Center
02:15PM 43.7308 -107.7450 148° Southeast 196 226 16,400 1,920 Climbing Salt Lake Center
02:16PM 43.6819 -107.6972 145° Southeast 213 245 18,100 1,620 Climbing Salt Lake Center
02:17PM 43.3615 -107.4135 147° Southeast  Level Estimated
02:17PM 43.6303 -107.6489 146° Southeast 222 255 19,800  Level Salt Lake Center
02:18PM 43.5731 -107.6047 151° Southeast 235 270 21,200 1,320 Climbing Salt Lake Center
02:19PM 43.5131 -107.5583 151° Southeast 247 284 22,600 1,260 Climbing Salt Lake Center
02:20PM 43.4522 -107.5006 145° Southeast 263 303 23,900 1,140 Climbing Salt Lake Center
02:21PM 43.3783 -107.4261 144° Southeast 274 315 25,000 480 Climbing Salt Lake Center
02:22PM 43.3075 -107.3617 146° Southeast 301 346 25,000  Level Salt Lake Center
02:23PM 43.2286 -107.3064 153° Southeast 320 368 25,000  Level Salt Lake Center
02:24PM 43.1514 -107.2358 146° Southeast 331 381 25,000  Level Salt Lake Center
02:25PM 43.0739 -107.1639 146° Southeast 337 388 25,000  Level Salt Lake Center
02:26PM 42.9922 -107.0925 147° Southeast 346 398 25,000  Level Salt Lake Center
02:27PM 42.9011 -107.0111 147° Southeast 344 396 25,000  Level Salt Lake Center
02:28PM 42.8214 -106.9406 147° Southeast 342 394 25,000  Level Salt Lake Center
02:29PM 42.7456 -106.8769 148° Southeast 338 389 25,000  Level Denver Center
02:30PM 42.6575 -106.8031 148° Southeast 334 384 25,000  Level Denver Center
02:31PM 42.5828 -106.7389 148° Southeast 333 383 25,000  Level Denver Center
02:32PM 42.4936 -106.6631 148° Southeast 338 389 25,000  Level Denver Center
02:33PM 42.4167 -106.5978 148° Southeast 340 391 25,000  Level Denver Center
02:34PM 42.3319 -106.5236 147° Southeast 339 390 25,000  Level Denver Center
02:35PM 42.2525 -106.4569 148° Southeast 339 390 25,000  Level Denver Center
02:36PM 42.1628 -106.3814 148° Southeast 340 391 25,000  Level Denver Center
02:37PM 42.0869 -106.3156 147° Southeast 340 391 25,000  Level Denver Center
02:38PM 42.0014 -106.2442 148° Southeast 328 377 25,000 -480 Level Denver Center
02:39PM 41.9328 -106.1897 149° Southeast 307 353 24,100 -1,260 Descending Denver Center
02:40PM 41.8533 -106.1244 149° Southeast 300 345 22,500 -1,500 Descending Denver Center
02:41PM 41.7869 -106.0664 147° Southeast 298 343 21,100 -1,560 Descending Denver Center
02:42PM 41.7194 -106.0108 148° Southeast 298 343 19,300 -1,680 Descending Denver Center
02:43PM 41.6461 -105.9506 148° Southeast 282 325 17,700 -1,620 Descending Denver Center
02:45PM 41.5850 -105.8997 148° Southeast 272 313 16,100 -1,680 Descending Denver Center
02:46PM 41.5136 -105.8408 148° Southeast 271 312 14,300 -1,320 Descending Denver Center
02:47PM 41.4519 -105.7922 149° Southeast 271 312 13,400 -1,080 Descending Denver Center
02:48PM 41.3919 -105.7422 148° Southeast 253 291 12,100 -1,260 Descending Denver Center
02:49PM 41.3492 -105.7131 153° Southeast 220 253 10,900 -1,080 Descending Denver Center
02:50PM 41.3117 -105.6833 149° Southeast 201 231 9,900 -1,020 Descending Denver Center
02:52PM 41.3121 -105.6750 148° Southeast  Level Estimated
02:59PM 41.3121 -105.6750 148° Southeast  Level Estimated